Time;durP1;ratioP1;P1;durP2;ratioP2;P2;SDS_P1;SDS_P2;PMS_P1;PMS_P2;Temp;Humidity;BMP_temperature;BMP_pressure;BME280_temperature;BME280_humidity;BME280_pressure;Samples;Min_cycle;Max_cycle;Signal;HPM_P1;HPM_P2
2022/09/10 00:01:48;;;;;;;5.75;3.17;;;15.30;99.90;;;;;;6160937;23;20012;-88
2022/09/10 00:04:24;;;;;;;5.03;2.70;;;15.30;99.90;;;;;;6160781;23;20095;-89
2022/09/10 00:07:45;;;;;;;8.35;3.70;;;15.30;99.90;;;;;;6185226;23;20067;-90
2022/09/10 00:10:10;;;;;;;5.85;2.83;;;15.30;99.90;;;;;;6246186;22;20020;-89
2022/09/10 00:13:28;;;;;;;5.30;2.72;;;15.20;99.90;;;;;;6163546;23;20518;-88
2022/09/10 00:19:54;;;;;;;5.22;2.63;;;15.20;99.90;;;;;;6117864;23;20096;-88
2022/09/10 00:22:36;;;;;;;6.25;3.03;;;15.20;99.90;;;;;;6101213;23;20021;-88
2022/09/10 00:25:14;;;;;;;7.20;3.83;;;15.20;99.90;;;;;;6056299;23;20017;-88
2022/09/10 00:27:54;;;;;;;5.75;3.17;;;15.30;99.90;;;;;;6077266;23;20021;-90
2022/09/10 00:30:21;;;;;;;6.93;3.70;;;15.30;99.90;;;;;;6077122;23;20014;-91
2022/09/10 00:32:51;;;;;;;6.82;3.10;;;15.40;99.90;;;;;;6101657;23;20022;-91
2022/09/10 00:35:18;;;;;;;5.82;3.15;;;15.40;99.90;;;;;;6078092;23;20512;-90
2022/09/10 00:37:45;;;;;;;6.30;3.00;;;15.50;99.90;;;;;;6077644;23;20028;-89
2022/09/10 00:40:12;;;;;;;8.68;3.72;;;15.50;99.90;;;;;;6053641;23;20381;-90
2022/09/10 00:42:42;;;;;;;6.93;3.88;;;15.50;99.90;;;;;;6101209;23;20522;-89
2022/09/10 00:45:16;;;;;;;7.35;3.65;;;15.50;99.90;;;;;;6101020;23;20018;-90
2022/09/10 00:47:45;;;;;;;11.32;4.90;;;15.60;99.90;;;;;;6101108;23;20020;-89
2022/09/10 00:50:14;;;;;;;8.45;4.50;;;15.60;99.90;;;;;;6141950;23;20052;-90
2022/09/10 00:52:40;;;;;;;8.60;4.22;;;15.60;99.90;;;;;;6161099;23;20013;-90
2022/09/10 00:55:07;;;;;;;7.32;3.55;;;15.70;99.90;;;;;;6166688;23;20042;-90
2022/09/10 00:57:51;;;;;;;6.13;3.55;;;15.70;99.90;;;;;;6162308;23;20020;-91
2022/09/10 01:00:17;;;;;;;5.18;3.05;;;15.70;99.90;;;;;;6161913;22;20016;-90
2022/09/10 01:02:43;;;;;;;5.28;2.97;;;15.70;99.90;;;;;;6160869;23;20017;-91
2022/09/10 01:05:12;;;;;;;6.97;3.60;;;15.80;99.90;;;;;;6185573;23;20017;-91
2022/09/10 01:07:38;;;;;;;7.38;3.85;;;15.80;99.90;;;;;;6160864;22;20016;-92
2022/09/10 01:10:17;;;;;;;9.45;3.50;;;15.80;99.90;;;;;;6161011;23;20059;-91
2022/09/10 01:13:06;;;;;;;5.90;3.15;;;15.80;99.90;;;;;;6160855;23;20099;-91
2022/09/10 01:15:49;;;;;;;8.13;3.47;;;15.80;99.90;;;;;;6161106;23;20020;-92
2022/09/10 01:18:37;;;;;;;7.38;3.75;;;15.80;99.90;;;;;;6161228;23;20460;-91
2022/09/10 01:21:18;;;;;;;7.10;3.50;;;15.80;99.90;;;;;;6161239;23;20021;-91
2022/09/10 01:24:21;;;;;;;6.40;3.47;;;15.90;99.90;;;;;;6160976;23;20059;-90
2022/09/10 01:27:12;;;;;;;8.38;3.90;;;15.90;99.90;;;;;;6160922;23;20016;-91
2022/09/10 01:29:57;;;;;;;7.47;3.38;;;15.90;99.90;;;;;;6160928;23;20017;-91
2022/09/10 01:32:39;;;;;;;8.25;4.13;;;15.90;99.90;;;;;;6161035;23;20013;-92
2022/09/10 01:35:16;;;;;;;7.88;3.40;;;15.90;99.90;;;;;;6160633;23;20013;-91
2022/09/10 01:37:50;;;;;;;6.70;3.53;;;15.90;99.90;;;;;;6160997;23;20024;-92
2022/09/10 01:40:17;;;;;;;7.40;4.07;;;15.90;99.90;;;;;;6185593;23;20009;-91
2022/09/10 01:42:44;;;;;;;7.10;3.67;;;15.90;99.90;;;;;;6160604;23;20028;-92
2022/09/10 01:45:14;;;;;;;7.05;3.90;;;15.90;99.90;;;;;;6161152;22;20017;-91
2022/09/10 01:47:46;;;;;;;8.02;3.83;;;15.90;99.90;;;;;;6160712;23;20399;-91
2022/09/10 01:50:12;;;;;;;8.82;4.53;;;15.90;99.90;;;;;;6160882;22;20023;-91
2022/09/10 01:53:06;;;;;;;8.20;3.97;;;15.90;99.90;;;;;;6160771;23;20017;-91
2022/09/10 01:55:40;;;;;;;7.70;3.80;;;15.90;99.90;;;;;;6185379;23;20107;-90
2022/09/10 01:58:25;;;;;;;8.07;4.60;;;15.90;99.90;;;;;;6160701;23;20089;-90
2022/09/10 02:01:43;;;;;;;7.05;3.63;;;15.90;99.90;;;;;;6160663;23;20461;-90
2022/09/10 02:04:13;;;;;;;8.63;4.47;;;15.90;99.90;;;;;;6149550;23;20112;-90
2022/09/10 02:06:45;;;;;;;8.50;3.55;;;15.90;99.90;;;;;;6160943;23;20016;-91
2022/09/10 02:09:14;;;;;;;8.43;4.15;;;15.90;99.90;;;;;;6160444;23;20418;-91
2022/09/10 02:11:51;;;;;;;10.15;5.20;;;15.90;99.90;;;;;;6160705;23;20070;-91
2022/09/10 02:14:19;;;;;;;7.50;4.03;;;15.90;99.90;;;;;;6160782;23;20430;-91
2022/09/10 02:16:53;;;;;;;9.02;5.10;;;15.90;99.90;;;;;;6185030;22;20410;-91
2022/09/10 02:19:22;;;;;;;10.70;5.40;;;15.90;99.90;;;;;;6160323;23;20017;-91
2022/09/10 02:21:48;;;;;;;10.60;5.00;;;15.80;99.90;;;;;;6185111;23;20021;-91
2022/09/10 02:24:14;;;;;;;10.35;5.00;;;15.90;99.90;;;;;;6160266;23;20073;-91
2022/09/10 02:26:42;;;;;;;8.27;4.50;;;15.90;99.90;;;;;;6160350;23;20024;-90
2022/09/10 02:29:10;;;;;;;9.15;5.18;;;15.80;99.90;;;;;;6160254;23;20017;-91
2022/09/10 02:31:37;;;;;;;10.77;5.93;;;15.90;99.90;;;;;;6160333;23;20028;-90
2022/09/10 02:34:03;;;;;;;10.23;5.57;;;15.80;99.90;;;;;;6160898;22;20021;-92
2022/09/10 02:36:32;;;;;;;12.57;4.80;;;15.90;99.90;;;;;;6161469;23;20076;-91
2022/09/10 02:38:59;;;;;;;9.05;5.25;;;15.80;99.90;;;;;;6161574;23;20019;-91
2022/09/10 02:41:25;;;;;;;9.77;4.97;;;15.80;99.90;;;;;;6161345;23;20016;-91
2022/09/10 02:43:54;;;;;;;10.50;5.20;;;15.80;99.90;;;;;;6161755;23;20095;-91
2022/09/10 02:46:24;;;;;;;12.68;6.28;;;15.80;99.90;;;;;;6161550;23;20024;-91
2022/09/10 02:48:50;;;;;;;12.68;6.90;;;15.80;99.90;;;;;;6161122;23;20051;-90
2022/09/10 02:51:16;;;;;;;12.50;7.18;;;15.80;99.90;;;;;;6161547;23;20441;-91
2022/09/10 02:53:41;;;;;;;11.38;5.95;;;15.80;99.90;;;;;;6137170;23;20459;-92
2022/09/10 02:56:07;;;;;;;14.70;7.25;;;15.80;99.90;;;;;;6161271;23;20021;-92
2022/09/10 02:58:33;;;;;;;14.00;6.65;;;15.80;99.90;;;;;;6161665;23;20480;-91
2022/09/10 03:01:25;;;;;;;12.88;6.45;;;15.80;99.90;;;;;;6161435;23;20020;-91
2022/09/10 03:03:55;;;;;;;14.93;6.57;;;15.90;99.90;;;;;;6136881;23;20016;-90
2022/09/10 03:06:25;;;;;;;14.85;7.22;;;15.90;99.90;;;;;;6163289;23;20074;-92
2022/09/10 03:08:56;;;;;;;11.35;6.13;;;15.80;99.90;;;;;;6167828;23;20051;-91
2022/09/10 03:20:53;;;;;;;13.40;6.57;;;15.90;99.90;;;;;;6168426;22;20024;-91
2022/09/10 03:33:43;;;;;;;13.02;6.78;;;15.90;99.90;;;;;;6150690;22;20025;-89
2022/09/10 03:43:56;;;;;;;15.90;8.10;;;15.90;99.90;;;;;;6164753;23;20446;-89
2022/09/10 03:46:22;;;;;;;;;;;15.90;99.90;;;;;;6139709;23;20022;-87
2022/09/10 03:48:48;;;;;;;14.40;7.68;;;15.90;99.90;;;;;;6127300;22;19965;-90
2022/09/10 03:51:14;;;;;;;14.85;7.95;;;15.90;99.90;;;;;;6104249;23;20024;-90
2022/09/10 03:53:42;;;;;;;13.77;7.95;;;15.90;99.90;;;;;;6102223;23;20013;-91
2022/09/10 03:56:09;;;;;;;13.38;8.35;;;15.90;99.90;;;;;;6126796;23;20022;-89
2022/09/10 03:58:36;;;;;;;13.23;6.85;;;15.90;99.90;;;;;;6102200;23;20097;-90
2022/09/10 04:01:02;;;;;;;14.55;7.72;;;15.90;99.90;;;;;;6102127;23;20029;-89
2022/09/10 04:03:28;;;;;;;13.82;7.75;;;15.90;99.90;;;;;;6102595;23;20018;-89
2022/09/10 04:05:53;;;;;;;13.40;7.90;;;15.90;99.90;;;;;;6102374;23;20040;-88
2022/09/10 04:08:19;;;;;;;16.15;8.70;;;15.90;99.90;;;;;;6102185;23;20063;-90
2022/09/10 04:10:47;;;;;;;16.95;8.18;;;15.80;99.90;;;;;;6126867;23;20028;-90
2022/09/10 04:13:13;;;;;;;14.60;8.43;;;15.90;99.90;;;;;;6126656;23;20017;-88
2022/09/10 04:15:39;;;;;;;18.02;9.35;;;15.90;99.90;;;;;;6102222;23;20391;-89
2022/09/10 04:18:06;;;;;;;15.73;8.52;;;15.90;99.90;;;;;;6102249;23;20451;-90
2022/09/10 04:20:33;;;;;;;16.10;7.95;;;15.80;99.90;;;;;;6102267;23;20461;-88
2022/09/10 04:22:59;;;;;;;16.20;8.50;;;15.90;99.90;;;;;;6109993;22;20170;-90
2022/09/10 04:25:45;;;;;;;13.20;7.30;;;15.90;99.90;;;;;;6134715;23;20029;-89
2022/09/10 04:28:11;;;;;;;14.07;7.78;;;15.90;99.90;;;;;;6103381;23;20017;-90
2022/09/10 04:30:37;;;;;;;14.90;7.50;;;15.90;99.90;;;;;;6126991;23;20022;-89
2022/09/10 04:33:03;;;;;;;15.35;7.68;;;15.90;99.90;;;;;;6102432;23;20047;-89
2022/09/10 04:35:29;;;;;;;15.27;7.82;;;15.90;99.90;;;;;;6102336;23;20443;-88
2022/09/10 04:37:55;;;;;;;16.55;7.97;;;15.90;99.90;;;;;;6103009;23;20024;-89
2022/09/10 04:40:20;;;;;;;15.65;7.65;;;15.80;99.90;;;;;;6102317;23;20021;-90
2022/09/10 04:42:46;;;;;;;18.10;9.33;;;15.80;99.90;;;;;;6102340;23;20100;-90
2022/09/10 04:45:12;;;;;;;16.65;8.32;;;15.90;99.90;;;;;;6078165;23;20722;-88
2022/09/10 04:47:37;;;;;;;16.55;8.82;;;15.90;99.90;;;;;;6122409;22;20027;-90
2022/09/10 04:50:05;;;;;;;17.92;8.48;;;15.80;99.90;;;;;;6106666;22;20018;-90
2022/09/10 04:52:31;;;;;;;15.95;8.23;;;15.80;99.90;;;;;;6126609;23;20029;-89
2022/09/10 04:54:58;;;;;;;18.08;8.43;;;15.80;99.90;;;;;;6102288;23;20106;-88
2022/09/10 04:57:24;;;;;;;16.30;8.27;;;15.80;99.90;;;;;;6101447;23;20018;-89
2022/09/10 04:59:52;;;;;;;17.00;8.38;;;15.90;99.90;;;;;;6102145;23;20091;-89
2022/09/10 05:02:19;;;;;;;15.93;8.93;;;15.90;99.90;;;;;;6102280;23;20017;-89
2022/09/10 05:04:45;;;;;;;15.68;8.38;;;15.90;99.90;;;;;;6102053;23;20017;-89
2022/09/10 05:07:10;;;;;;;19.65;9.32;;;15.90;99.90;;;;;;6102187;23;20018;-90
2022/09/10 05:09:36;;;;;;;14.50;7.85;;;15.80;99.90;;;;;;6101907;23;20025;-90
2022/09/10 05:12:03;;;;;;;16.95;8.43;;;15.90;99.90;;;;;;6102120;23;20351;-87
2022/09/10 05:14:29;;;;;;;14.93;8.18;;;15.80;99.90;;;;;;6101816;23;20014;-88
2022/09/10 05:16:55;;;;;;;14.13;7.57;;;15.90;99.90;;;;;;6126054;23;20028;-91
2022/09/10 05:19:21;;;;;;;;;;;15.90;99.90;;;;;;6102764;23;20052;-92
2022/09/10 05:21:47;;;;;;;16.08;7.50;;;15.90;99.90;;;;;;6254756;22;19920;-92
2022/09/10 05:24:14;;;;;;;13.43;7.72;;;15.90;99.90;;;;;;6102157;23;20469;-92
2022/09/10 05:26:40;;;;;;;13.70;7.32;;;15.90;99.90;;;;;;6126419;23;20048;-91
2022/09/10 05:29:06;;;;;;;;;;;15.90;99.90;;;;;;6102466;23;20079;-90
2022/09/10 05:31:34;;;;;;;14.02;7.13;;;15.90;99.90;;;;;;6102098;23;19916;-93
2022/09/10 05:34:00;;;;;;;13.77;6.53;;;15.90;99.90;;;;;;6101799;23;20017;-91
2022/09/10 05:36:26;;;;;;;12.52;7.20;;;15.90;99.90;;;;;;6126205;23;20022;-91
2022/09/10 05:38:53;;;;;;;14.27;7.28;;;15.90;99.90;;;;;;6102146;23;20104;-91
2022/09/10 05:41:20;;;;;;;13.27;7.35;;;15.90;99.90;;;;;;6091969;23;20060;-90
2022/09/10 05:43:47;;;;;;;14.57;7.82;;;15.90;99.90;;;;;;6112553;23;20092;-90
2022/09/10 05:46:12;;;;;;;14.10;7.15;;;15.90;99.90;;;;;;6125744;23;20029;-91
2022/09/10 05:48:39;;;;;;;12.70;6.68;;;15.90;99.90;;;;;;6121467;22;20009;-90
2022/09/10 05:51:06;;;;;;;13.88;7.95;;;15.80;99.90;;;;;;6284685;22;20100;-91
2022/09/10 05:53:32;;;;;;;13.98;7.50;;;15.80;99.90;;;;;;6130662;23;20377;-90
2022/09/10 05:55:58;;;;;;;12.60;7.43;;;15.90;99.90;;;;;;6155281;23;20017;-90
2022/09/10 05:58:26;;;;;;;14.70;7.40;;;15.90;99.90;;;;;;6130737;23;20056;-89
2022/09/10 06:00:57;;;;;;;16.42;7.82;;;15.90;99.90;;;;;;6155222;23;20342;-88
2022/09/10 06:03:23;;;;;;;14.48;7.00;;;15.80;99.90;;;;;;6130670;23;20070;-89
2022/09/10 06:05:49;;;;;;;;;;;15.80;99.90;;;;;;6131237;23;20017;-89
2022/09/10 06:08:16;;;;;;;12.15;6.63;;;15.80;99.90;;;;;;6130047;23;20253;-89
2022/09/10 06:10:42;;;;;;;12.75;6.30;;;15.80;99.90;;;;;;6155977;23;20394;-89
2022/09/10 06:13:10;;;;;;;12.88;6.15;;;15.80;99.90;;;;;;6285126;22;20028;-89
2022/09/10 06:15:36;;;;;;;13.80;6.95;;;15.80;99.90;;;;;;6155179;23;20017;-89
2022/09/10 06:18:03;;;;;;;13.30;7.20;;;15.90;99.90;;;;;;6155345;22;20023;-89
2022/09/10 06:20:28;;;;;;;;;;;15.90;99.90;;;;;;6156001;22;20092;-90
2022/09/10 06:22:54;;;;;;;12.80;7.00;;;15.90;99.90;;;;;;6130630;23;19959;-89
2022/09/10 06:25:20;;;;;;;13.70;6.82;;;15.90;99.90;;;;;;6130641;23;20017;-88
2022/09/10 06:27:46;;;;;;;13.68;7.50;;;15.90;99.90;;;;;;6131061;23;20017;-90
2022/09/10 06:30:17;;;;;;;;;;;15.90;99.90;;;;;;6155489;23;20472;-90
2022/09/10 06:32:42;;;;;;;12.45;6.40;;;15.90;99.90;;;;;;6231617;23;19916;-90
2022/09/10 06:35:20;;;;;;;14.65;6.85;;;15.90;99.90;;;;;;6155124;23;20446;-91
2022/09/10 06:37:49;;;;;;;14.95;7.15;;;16.00;99.90;;;;;;6107606;23;20021;-89
2022/09/10 06:40:15;;;;;;;13.93;6.68;;;16.00;99.90;;;;;;6133419;23;20018;-91
2022/09/10 06:42:41;;;;;;;13.48;7.47;;;16.00;99.90;;;;;;6127839;23;20021;-90
2022/09/10 06:45:07;;;;;;;12.07;6.75;;;16.00;99.90;;;;;;6101252;23;20071;-92
2022/09/10 06:47:33;;;;;;;10.90;6.40;;;16.00;99.90;;;;;;6102005;23;20028;-90
2022/09/10 06:49:58;;;;;;;14.35;6.53;;;16.00;99.90;;;;;;6098052;23;20018;-90
2022/09/10 06:52:26;;;;;;;11.73;6.47;;;16.10;99.90;;;;;;6101577;23;20024;-90
2022/09/10 06:54:52;;;;;;;12.25;6.15;;;16.10;99.90;;;;;;6097818;23;20018;-90
2022/09/10 06:57:18;;;;;;;14.70;7.25;;;16.10;99.90;;;;;;6101123;23;20024;-90
2022/09/10 06:59:44;;;;;;;13.95;6.75;;;16.10;99.90;;;;;;6125537;23;20067;-90
2022/09/10 07:02:10;;;;;;;12.38;6.70;;;16.10;99.90;;;;;;6101151;23;20022;-91
2022/09/10 07:04:36;;;;;;;14.02;7.32;;;16.10;99.90;;;;;;6125703;23;20104;-91
2022/09/10 07:07:01;;;;;;;11.95;6.68;;;16.10;99.90;;;;;;6125758;23;20050;-90
2022/09/10 07:09:27;;;;;;;13.82;7.30;;;16.20;99.90;;;;;;6125596;23;20022;-90
2022/09/10 07:11:53;;;;;;;11.75;6.38;;;16.20;99.90;;;;;;6097927;23;20109;-88
2022/09/10 07:14:19;;;;;;;12.63;6.85;;;16.20;99.90;;;;;;6067501;23;20021;-89
2022/09/10 07:16:46;;;;;;;11.02;5.65;;;16.20;99.90;;;;;;6148922;22;20058;-88
2022/09/10 07:19:16;;;;;;;11.43;6.85;;;16.20;99.90;;;;;;6106997;23;20017;-91
2022/09/10 07:21:42;;;;;;;14.65;6.80;;;16.20;99.90;;;;;;6104493;23;20022;-92
2022/09/10 07:24:09;;;;;;;12.65;7.22;;;16.30;99.90;;;;;;6102281;23;20020;-92
2022/09/10 07:26:35;;;;;;;13.55;7.35;;;16.20;99.90;;;;;;6122956;22;20016;-90
2022/09/10 07:29:01;;;;;;;14.20;6.20;;;16.30;99.90;;;;;;6133147;23;20013;-92
2022/09/10 07:31:29;;;;;;;15.73;7.78;;;16.20;99.90;;;;;;6102631;23;20021;-91
2022/09/10 07:33:59;;;;;;;13.40;6.82;;;16.20;99.90;;;;;;6126840;23;20018;-91
2022/09/10 07:36:27;;;;;;;12.50;6.15;;;16.20;99.90;;;;;;6126970;23;20017;-90
2022/09/10 07:38:54;;;;;;;13.70;6.72;;;16.20;99.90;;;;;;6102480;23;20014;-89
2022/09/10 07:41:20;;;;;;;12.80;6.55;;;16.20;99.90;;;;;;6127121;23;20064;-90
2022/09/10 07:43:48;;;;;;;12.82;7.05;;;16.30;99.90;;;;;;6171039;22;20052;-88
2022/09/10 07:46:20;;;;;;;12.90;7.07;;;16.30;99.90;;;;;;6248376;22;20053;-88
2022/09/10 07:48:47;;;;;;;11.15;6.10;;;16.20;99.90;;;;;;6305506;22;20018;-89
2022/09/10 07:51:17;;;;;;;14.35;6.63;;;16.30;99.90;;;;;;6131558;23;20409;-88
2022/09/10 07:53:44;;;;;;;13.35;6.55;;;16.30;99.90;;;;;;6131833;23;20066;-88
2022/09/10 07:56:11;;;;;;;13.02;6.90;;;16.20;99.90;;;;;;6138452;23;20441;-89
2022/09/10 07:58:37;;;;;;;;;;;16.30;99.90;;;;;;6224814;22;20019;-89
2022/09/10 08:01:08;;;;;;;13.30;6.15;;;16.30;99.90;;;;;;6135079;23;19952;-91
2022/09/10 08:03:34;;;;;;;12.07;5.70;;;16.30;99.90;;;;;;6131650;23;20503;-90
2022/09/10 08:06:01;;;;;;;12.38;5.85;;;16.30;99.90;;;;;;6156182;23;20017;-90
2022/09/10 08:08:31;;;;;;;12.75;6.68;;;16.30;99.90;;;;;;6156184;23;20021;-93
2022/09/10 08:11:16;;;;;;;11.57;5.80;;;16.30;99.90;;;;;;6131259;23;20021;-90
2022/09/10 08:13:47;;;;;;;12.98;6.82;;;16.30;99.90;;;;;;6156396;22;20040;-91
2022/09/10 08:16:16;;;;;;;12.23;6.18;;;16.30;99.90;;;;;;6174148;23;20021;-92
2022/09/10 08:18:42;;;;;;;12.38;6.25;;;16.40;99.90;;;;;;6126517;23;20461;-90
2022/09/10 08:21:08;;;;;;;;;;;16.40;99.90;;;;;;6151101;23;20013;-92
2022/09/10 08:23:34;;;;;;;13.93;6.78;;;16.40;99.90;;;;;;6126752;23;20007;-90
2022/09/10 08:26:00;;;;;;;10.63;5.82;;;16.40;99.90;;;;;;6130096;23;20009;-89
2022/09/10 08:28:26;;;;;;;12.57;6.20;;;16.40;99.90;;;;;;6235978;22;20058;-89
2022/09/10 08:31:06;;;;;;;11.98;6.22;;;16.40;99.90;;;;;;6142138;23;20052;-90
2022/09/10 08:33:33;;;;;;;11.48;5.78;;;16.40;99.90;;;;;;6267209;22;20022;-91
2022/09/10 08:36:00;;;;;;;15.25;7.40;;;16.50;99.90;;;;;;6161982;22;20058;-89
2022/09/10 08:38:30;;;;;;;14.20;7.03;;;16.50;99.90;;;;;;6131298;23;20029;-91
2022/09/10 08:40:58;;;;;;;12.40;6.55;;;16.40;99.90;;;;;;6131173;23;20446;-91
2022/09/10 08:43:53;;;;;;;13.07;6.80;;;16.50;99.90;;;;;;6153017;23;20068;-90
2022/09/10 08:46:23;;;;;;;;;;;16.40;99.90;;;;;;6255485;22;20022;-91
2022/09/10 08:48:53;;;;;;;;;;;16.40;99.90;;;;;;6230870;22;19920;-91
2022/09/10 08:51:26;;;;;;;12.90;6.68;;;16.40;99.90;;;;;;6229240;22;19924;-91
2022/09/10 08:54:18;;;;;;;13.65;6.57;;;16.40;99.90;;;;;;6254189;22;20040;-91
2022/09/10 08:56:46;;;;;;;13.73;6.55;;;16.50;99.90;;;;;;6228578;23;20018;-94
2022/09/10 08:59:24;;;;;;;13.95;7.00;;;16.50;99.90;;;;;;6230124;22;20022;-91
2022/09/10 09:02:18;;;;;;;12.32;6.50;;;16.50;99.90;;;;;;6229115;23;20350;-90
2022/09/10 09:04:57;;;;;;;13.10;6.78;;;16.50;99.90;;;;;;6229571;23;20017;-91
2022/09/10 09:07:30;;;;;;;14.60;6.82;;;16.50;99.90;;;;;;6229779;23;20021;-91
2022/09/10 09:10:19;;;;;;;12.73;5.95;;;16.50;99.90;;;;;;6229637;23;20387;-91
2022/09/10 09:12:48;;;;;;;12.95;6.53;;;16.50;99.90;;;;;;6229274;23;20014;-91
2022/09/10 09:15:19;;;;;;;14.85;7.07;;;16.50;99.90;;;;;;6229725;23;20021;-90
2022/09/10 09:18:13;;;;;;;14.85;6.75;;;16.50;99.90;;;;;;6229137;22;20053;-91
2022/09/10 09:20:48;;;;;;;13.57;6.40;;;16.50;99.90;;;;;;6229267;22;20348;-90
2022/09/10 09:23:35;;;;;;;16.83;6.38;;;16.50;99.90;;;;;;6228873;22;20093;-90
2022/09/10 09:26:09;;;;;;;13.57;6.65;;;16.50;99.90;;;;;;6230026;23;20039;-90
2022/09/10 09:28:59;;;;;;;13.88;6.97;;;16.50;99.90;;;;;;6229671;22;20031;-91
2022/09/10 09:31:39;;;;;;;13.32;6.70;;;16.50;99.90;;;;;;6227713;22;20024;-91
2022/09/10 09:34:18;;;;;;;12.95;6.25;;;16.50;99.90;;;;;;6204317;22;20070;-90
2022/09/10 09:36:55;;;;;;;11.73;5.28;;;16.50;99.90;;;;;;6253808;22;20455;-91
2022/09/10 09:39:34;;;;;;;14.82;6.43;;;16.60;99.90;;;;;;6229629;22;20084;-89
2022/09/10 09:42:20;;;;;;;15.32;7.63;;;16.50;99.90;;;;;;6228421;22;20096;-90
2022/09/10 09:44:57;;;;;;;12.13;6.22;;;16.60;99.90;;;;;;6155895;22;20093;-90
2022/09/10 09:47:22;;;;;;;11.98;6.20;;;16.60;99.90;;;;;;6229752;23;20014;-90
2022/09/10 09:49:48;;;;;;;14.35;6.32;;;16.60;99.90;;;;;;6229431;23;20021;-90
2022/09/10 09:52:21;;;;;;;11.90;6.35;;;16.70;99.90;;;;;;6229625;23;20017;-90
2022/09/10 09:54:55;;;;;;;12.93;6.60;;;16.60;99.90;;;;;;6229015;23;20022;-90
2022/09/10 09:57:21;;;;;;;11.23;5.72;;;16.70;99.90;;;;;;6229197;23;20022;-90
2022/09/10 09:59:48;;;;;;;15.20;6.75;;;16.70;99.90;;;;;;6229416;23;20021;-90
2022/09/10 10:02:24;;;;;;;13.35;6.30;;;16.70;99.90;;;;;;6228988;23;20017;-90
2022/09/10 10:04:59;;;;;;;12.88;6.00;;;16.70;99.90;;;;;;6231547;23;20018;-90
2022/09/10 10:07:26;;;;;;;13.63;6.35;;;16.70;99.90;;;;;;6269256;22;20028;-90
2022/09/10 10:09:53;;;;;;;15.80;7.35;;;16.70;99.90;;;;;;6243599;22;20020;-90
2022/09/10 10:12:19;;;;;;;;;;;16.70;99.90;;;;;;6228476;23;20017;-89
2022/09/10 10:14:45;;;;;;;14.20;6.75;;;16.70;99.90;;;;;;6228114;23;19917;-90
2022/09/10 10:17:29;;;;;;;11.05;6.00;;;16.70;99.90;;;;;;6229581;23;20064;-89
2022/09/10 10:20:07;;;;;;;12.95;6.82;;;16.70;99.90;;;;;;6255074;22;20435;-89
2022/09/10 10:22:34;;;;;;;12.95;5.88;;;16.70;99.90;;;;;;6229272;23;20018;-89
2022/09/10 10:25:01;;;;;;;10.30;5.18;;;16.70;99.90;;;;;;6254918;22;20070;-90
2022/09/10 10:27:34;;;;;;;12.82;6.03;;;16.70;99.90;;;;;;6254966;22;20014;-90
2022/09/10 10:30:04;;;;;;;12.73;6.60;;;16.80;99.90;;;;;;6280548;22;20024;-91
2022/09/10 10:32:41;;;;;;;13.43;6.28;;;16.80;99.90;;;;;;6229451;23;20351;-90
2022/09/10 10:35:18;;;;;;;;;;;16.80;99.90;;;;;;6229606;23;20280;-90
2022/09/10 10:38:21;;;;;;;12.07;6.00;;;16.80;99.90;;;;;;6255088;22;19940;-90
2022/09/10 10:40:55;;;;;;;11.70;5.28;;;16.90;99.90;;;;;;6229553;23;20017;-90
2022/09/10 10:43:56;;;;;;;13.23;6.13;;;16.90;99.90;;;;;;6255166;22;20041;-91
2022/09/10 10:46:36;;;;;;;12.45;5.90;;;17.10;99.90;;;;;;6256429;22;20060;-89
2022/09/10 10:49:21;;;;;;;8.75;4.85;;;17.20;99.90;;;;;;6259370;22;20441;-90
2022/09/10 10:51:59;;;;;;;12.88;6.90;;;17.20;99.90;;;;;;6254259;22;20057;-89
2022/09/10 10:54:30;;;;;;;11.10;5.25;;;17.30;99.90;;;;;;6254412;22;20015;-89
2022/09/10 10:57:14;;;;;;;11.98;5.85;;;17.30;99.90;;;;;;6256966;22;20058;-90
2022/09/10 11:00:06;;;;;;;9.63;5.40;;;17.40;99.90;;;;;;6282627;22;20015;-90
2022/09/10 11:02:49;;;;;;;11.70;5.70;;;17.50;99.90;;;;;;6257329;22;20345;-90
2022/09/10 11:05:29;;;;;;;8.75;3.72;;;17.50;99.90;;;;;;6282556;22;20015;-90
2022/09/10 11:08:05;;;;;;;10.65;5.18;;;17.60;99.90;;;;;;6255984;22;20482;-91
2022/09/10 11:10:41;;;;;;;12.27;5.70;;;17.70;99.90;;;;;;6256661;22;20052;-91
2022/09/10 11:13:22;;;;;;;9.55;4.97;;;17.80;99.90;;;;;;6256735;22;20026;-91
2022/09/10 11:16:13;;;;;;;10.15;4.93;;;17.80;99.90;;;;;;6256948;22;20015;-90
2022/09/10 11:18:57;;;;;;;9.40;4.85;;;17.80;99.90;;;;;;6254791;22;20475;-89
2022/09/10 11:21:48;;;;;;;10.68;5.32;;;18.00;99.90;;;;;;6255900;22;20069;-90
2022/09/10 11:24:33;;;;;;;9.43;4.70;;;18.20;99.90;;;;;;6281173;22;20016;-90
2022/09/10 11:26:58;;;;;;;11.15;5.18;;;18.40;99.90;;;;;;6256206;22;20015;-90
2022/09/10 11:33:52;;;;;;;9.20;4.32;;;18.80;99.90;;;;;;6309680;22;20061;-88
2022/09/10 11:37:02;;;;;;;8.13;4.15;;;18.80;99.90;;;;;;6276478;22;20029;-88
2022/09/10 11:39:34;;;;;;;10.38;4.43;;;18.90;99.90;;;;;;6247684;22;20026;-89
2022/09/10 11:42:19;;;;;;;9.43;4.80;;;19.10;99.90;;;;;;6255570;22;20441;-89
2022/09/10 11:45:18;;;;;;;8.35;4.28;;;19.30;99.90;;;;;;6150450;23;20025;-88
2022/09/10 11:47:50;;;;;;;9.35;4.93;;;19.30;99.90;;;;;;6131167;23;20070;-89
2022/09/10 11:50:38;;;;;;;8.52;3.70;;;19.50;99.90;;;;;;6130770;23;20017;-88
2022/09/10 11:53:07;;;;;;;8.20;4.22;;;19.60;99.90;;;;;;6155854;23;20023;-90
2022/09/10 11:55:56;;;;;;;8.85;4.50;;;19.70;99.90;;;;;;6215219;22;20021;-90
2022/09/10 11:58:59;;;;;;;9.30;4.45;;;19.60;99.90;;;;;;6131292;23;20400;-89
2022/09/10 12:02:18;;;;;;;9.25;4.28;;;19.70;99.90;;;;;;6131384;23;20017;-88
2022/09/10 12:05:00;;;;;;;8.18;3.90;;;19.90;99.90;;;;;;6155750;23;20017;-88
2022/09/10 12:07:45;;;;;;;7.70;4.05;;;20.10;99.90;;;;;;6131344;23;20029;-91
2022/09/10 12:10:48;;;;;;;8.82;4.57;;;20.10;99.90;;;;;;6131223;23;20020;-89
2022/09/10 12:13:14;;;;;;;11.02;6.68;;;20.20;99.90;;;;;;6155699;23;20021;-90
2022/09/10 12:15:51;;;;;;;8.70;3.55;;;20.30;99.90;;;;;;6225470;22;20017;-90
2022/09/10 12:18:32;;;;;;;7.25;3.83;;;20.20;99.90;;;;;;6154662;23;20024;-88
2022/09/10 12:21:06;;;;;;;7.50;3.85;;;20.10;99.90;;;;;;6155694;22;20086;-88
2022/09/10 12:23:35;;;;;;;10.52;4.97;;;19.90;99.90;;;;;;6182152;22;20021;-89
2022/09/10 12:26:19;;;;;;;10.15;4.47;;;19.70;99.90;;;;;;6155578;23;20018;-89
2022/09/10 12:28:48;;;;;;;8.05;4.40;;;19.50;99.90;;;;;;6155697;22;20020;-88
2022/09/10 12:31:15;;;;;;;8.05;3.83;;;19.40;99.90;;;;;;6155604;23;20025;-88
2022/09/10 12:33:41;;;;;;;8.05;4.25;;;19.20;99.90;;;;;;6155802;22;20522;-87
2022/09/10 12:36:07;;;;;;;8.63;4.35;;;19.10;99.90;;;;;;6131027;23;20053;-89
2022/09/10 12:38:48;;;;;;;6.82;3.88;;;19.00;99.90;;;;;;6155686;22;20017;-88
2022/09/10 12:41:23;;;;;;;9.88;4.28;;;18.90;99.90;;;;;;6194973;22;20052;-86
2022/09/10 12:43:52;;;;;;;7.10;3.70;;;18.80;99.90;;;;;;6155117;23;20096;-88
2022/09/10 12:46:21;;;;;;;9.90;4.80;;;18.80;99.90;;;;;;6155267;22;20025;-88
2022/09/10 12:48:55;;;;;;;8.48;3.83;;;18.70;99.90;;;;;;6155373;23;20027;-88
2022/09/10 12:51:26;;;;;;;7.28;3.72;;;18.70;99.90;;;;;;6130646;23;20024;-88
2022/09/10 12:53:58;;;;;;;7.60;3.83;;;18.70;99.90;;;;;;6130844;23;20021;-87
2022/09/10 12:56:52;;;;;;;8.18;4.15;;;18.70;99.90;;;;;;6130949;23;20507;-88
2022/09/10 12:59:42;;;;;;;7.57;4.00;;;18.70;99.90;;;;;;6131333;23;20413;-89
2022/09/10 13:02:30;;;;;;;8.10;4.28;;;18.70;99.90;;;;;;6155025;23;20045;-89
2022/09/10 13:05:05;;;;;;;7.50;3.92;;;18.80;99.90;;;;;;6180366;22;20020;-89
2022/09/10 13:07:33;;;;;;;7.32;3.83;;;18.90;99.90;;;;;;6155181;22;20438;-88
2022/09/10 13:10:14;;;;;;;7.80;3.85;;;19.00;99.90;;;;;;6155698;23;20021;-92
2022/09/10 13:12:43;;;;;;;5.97;3.20;;;19.10;99.90;;;;;;6130636;23;20013;-87
2022/09/10 13:15:23;;;;;;;8.32;3.92;;;19.20;99.90;;;;;;6155377;23;20027;-89
2022/09/10 13:17:50;;;;;;;8.75;4.28;;;19.10;99.90;;;;;;6155173;22;20017;-90
2022/09/10 13:20:18;;;;;;;;;;;19.10;99.90;;;;;;6131450;23;20053;-90
2022/09/10 13:23:00;;;;;;;8.85;4.07;;;19.10;99.90;;;;;;6155437;23;19920;-87
2022/09/10 13:25:47;;;;;;;6.45;3.63;;;19.20;99.90;;;;;;6130767;23;20020;-88
2022/09/10 13:28:39;;;;;;;7.43;3.80;;;19.40;99.90;;;;;;6130765;23;20036;-88
2022/09/10 13:31:17;;;;;;;8.73;4.80;;;19.60;99.90;;;;;;6139532;23;20021;-87
2022/09/10 13:33:48;;;;;;;9.07;4.93;;;19.70;99.90;;;;;;6182053;22;20086;-88
2022/09/10 13:36:31;;;;;;;7.63;4.22;;;19.70;99.90;;;;;;6135528;23;20025;-88
2022/09/10 13:39:39;;;;;;;6.70;4.03;;;19.60;99.90;;;;;;6181103;22;20025;-88
2022/09/10 13:42:33;;;;;;;7.38;3.70;;;19.50;99.90;;;;;;6155286;22;20017;-87
2022/09/10 13:45:17;;;;;;;7.15;3.30;;;19.40;99.90;;;;;;6179990;23;20374;-88
2022/09/10 13:48:00;;;;;;;5.95;3.25;;;19.50;99.90;;;;;;6130687;23;20465;-88
2022/09/10 13:50:37;;;;;;;6.68;3.95;;;19.60;99.90;;;;;;6155071;22;20045;-89